createdAt,value
2018-11-10T00:02:15.612Z,22.03
2018-11-10T00:04:44.089Z,27.47
2018-11-10T00:07:12.574Z,24.00
2018-11-10T00:09:41.011Z,20.17
2018-11-10T00:12:10.381Z,20.33
2018-11-10T00:14:38.950Z,21.47
2018-11-10T00:17:07.675Z,18.30
2018-11-10T00:19:36.220Z,20.83
2018-11-10T00:22:04.673Z,19.73
2018-11-10T00:24:33.127Z,18.07
2018-11-10T00:27:01.979Z,21.57
2018-11-10T00:29:30.447Z,17.67
2018-11-10T00:31:58.993Z,19.73
2018-11-10T00:34:27.528Z,17.90
2018-11-10T00:36:55.972Z,19.10
2018-11-10T00:39:24.593Z,16.77
2018-11-10T00:41:53.058Z,18.10
2018-11-10T00:44:21.534Z,18.33
2018-11-10T00:46:50.135Z,17.87
2018-11-10T00:49:18.611Z,19.13
2018-11-10T00:51:47.083Z,21.93
2018-11-10T00:54:15.635Z,20.17
2018-11-10T00:56:44.123Z,18.00
2018-11-10T00:59:12.583Z,19.97
2018-11-10T01:01:41.052Z,21.10
2018-11-10T01:04:09.511Z,18.53
2018-11-10T01:06:37.973Z,18.40
2018-11-10T01:09:06.833Z,17.73
2018-11-10T01:11:35.311Z,19.20
2018-11-10T01:14:03.879Z,18.20
2018-11-10T01:16:32.344Z,17.83
2018-11-10T01:19:01.087Z,19.40
2018-11-10T01:21:29.528Z,18.47
2018-11-10T01:23:58.013Z,20.70
2018-11-10T01:26:26.491Z,18.17
2018-11-10T01:28:54.982Z,20.23
2018-11-10T01:31:23.452Z,21.27
2018-11-10T01:33:51.913Z,19.47
2018-11-10T01:36:20.400Z,18.00
2018-11-10T01:38:48.886Z,18.47
2018-11-10T01:41:17.343Z,18.30
2018-11-10T01:43:45.940Z,18.30
2018-11-10T01:46:14.424Z,19.17
2018-11-10T01:48:42.864Z,17.93
2018-11-10T01:51:11.346Z,19.17
2018-11-10T01:53:39.798Z,18.87
2018-11-10T01:56:08.267Z,17.93
2018-11-10T01:58:36.924Z,17.17
2018-11-10T02:01:05.512Z,17.90
2018-11-10T02:03:33.979Z,17.00
2018-11-10T02:06:02.808Z,18.13
2018-11-10T02:08:31.291Z,17.40
2018-11-10T02:10:59.775Z,16.43
2018-11-10T02:13:28.251Z,16.73
2018-11-10T02:15:56.798Z,17.90
2018-11-10T02:18:25.257Z,17.77
2018-11-10T02:20:53.697Z,18.83
2018-11-10T02:23:22.256Z,18.40
2018-11-10T02:25:50.720Z,17.17
2018-11-10T02:28:19.180Z,17.67
2018-11-10T02:30:47.631Z,20.13
2018-11-10T02:33:16.095Z,18.63
2018-11-10T02:35:44.706Z,20.53
2018-11-10T02:38:13.208Z,19.30
2018-11-10T02:40:41.669Z,20.60
2018-11-10T02:43:10.288Z,19.47
2018-11-10T02:45:38.761Z,19.87
2018-11-10T02:48:07.222Z,18.60
2018-11-10T02:50:35.692Z,18.60
2018-11-10T02:53:04.215Z,19.73
2018-11-10T02:55:32.660Z,20.30
2018-11-10T02:58:01.319Z,19.63
2018-11-10T03:00:29.778Z,21.37
2018-11-10T03:02:58.226Z,20.63
2018-11-10T03:05:26.687Z,19.93
2018-11-10T03:07:55.179Z,20.93
2018-11-10T03:10:23.766Z,18.30
2018-11-10T03:12:52.298Z,20.50
2018-11-10T03:15:20.761Z,20.93
2018-11-10T03:17:49.214Z,21.50
2018-11-10T03:20:17.726Z,20.50
2018-11-10T03:22:46.202Z,22.33
2018-11-10T03:25:14.728Z,19.23
2018-11-10T03:27:43.210Z,20.37
2018-11-10T03:30:11.716Z,19.23
2018-11-10T03:32:40.199Z,20.10
2018-11-10T03:35:09.383Z,21.07
2018-11-10T03:37:37.862Z,20.83
2018-11-10T03:40:07.104Z,20.33
2018-11-10T03:42:35.669Z,20.10
2018-11-10T03:45:04.492Z,21.17
2018-11-10T03:47:32.928Z,20.00
2018-11-10T03:50:01.387Z,19.30
2018-11-10T03:52:29.858Z,21.03
2018-11-10T03:54:58.439Z,21.70
2018-11-10T03:57:26.920Z,20.07
2018-11-10T03:59:55.467Z,21.57
2018-11-10T04:02:24.003Z,20.33
2018-11-10T04:04:52.488Z,21.03
2018-11-10T04:07:20.967Z,20.20
2018-11-10T04:09:49.427Z,17.53
2018-11-10T04:12:17.905Z,20.10
2018-11-10T04:14:46.398Z,19.47
2018-11-10T04:17:14.834Z,19.40
2018-11-10T04:19:43.313Z,18.57
2018-11-10T04:22:11.844Z,19.80
2018-11-10T04:24:40.319Z,19.93
2018-11-10T04:27:09.980Z,18.13
2018-11-10T04:29:38.413Z,19.33
2018-11-10T04:32:06.981Z,19.03
2018-11-10T04:34:35.439Z,22.30
2018-11-10T04:37:03.940Z,20.40
2018-11-10T04:39:32.452Z,19.60
2018-11-10T04:42:00.904Z,20.77
2018-11-10T04:44:29.364Z,20.33
2018-11-10T04:46:57.859Z,20.30
2018-11-10T04:49:26.342Z,19.90
2018-11-10T04:51:54.792Z,20.50
2018-11-10T04:54:23.295Z,19.53
2018-11-10T04:56:51.740Z,21.63
2018-11-10T04:59:20.204Z,19.83
2018-11-10T05:01:48.697Z,20.60
2018-11-10T05:04:17.242Z,20.00
2018-11-10T05:06:45.699Z,20.17
2018-11-10T05:09:14.183Z,19.83
2018-11-10T05:11:42.630Z,20.03
2018-11-10T05:14:11.234Z,20.17
2018-11-10T05:16:39.671Z,19.37
2018-11-10T05:19:08.166Z,21.27
2018-11-10T05:21:36.616Z,20.30
2018-11-10T05:24:05.312Z,20.20
2018-11-10T05:26:33.848Z,21.47
2018-11-10T05:29:02.401Z,19.30
2018-11-10T05:31:30.881Z,19.47
2018-11-10T05:36:58.756Z,20.00
2018-11-10T05:39:27.227Z,21.03
2018-11-10T05:41:55.675Z,19.70
2018-11-10T05:44:24.157Z,19.37
2018-11-10T05:46:52.615Z,19.30
2018-11-10T05:49:21.125Z,20.80
2018-11-10T05:51:49.741Z,19.33
2018-11-10T05:54:18.252Z,19.23
2018-11-10T05:56:46.874Z,19.40
2018-11-10T05:59:15.401Z,19.47
2018-11-10T06:01:43.845Z,19.50
2018-11-10T06:04:12.313Z,19.17
2018-11-10T06:06:40.795Z,18.83
2018-11-10T06:09:10.886Z,19.87
2018-11-10T06:11:39.946Z,19.13
2018-11-10T06:14:08.796Z,20.17
2018-11-10T06:16:37.321Z,21.03
2018-11-10T06:19:05.961Z,20.17
2018-11-10T06:21:34.421Z,19.57
2018-11-10T06:24:02.916Z,19.70
2018-11-10T06:26:31.385Z,19.60
2018-11-10T06:28:59.840Z,19.63
2018-11-10T06:31:28.435Z,20.73
2018-11-10T06:33:56.903Z,18.90
2018-11-10T06:36:25.377Z,21.40
2018-11-10T06:38:53.896Z,20.40
2018-11-10T06:41:22.590Z,19.30
2018-11-10T06:43:51.011Z,19.27
2018-11-10T06:46:19.640Z,19.30
2018-11-10T06:48:48.103Z,18.80
2018-11-10T06:51:16.563Z,18.67
2018-11-10T06:53:45.035Z,18.73
2018-11-10T06:56:13.525Z,18.67
2018-11-10T06:58:41.999Z,18.27
2018-11-10T07:01:10.443Z,17.87
2018-11-10T07:03:39.051Z,18.33
2018-11-10T07:06:07.602Z,18.60
2018-11-10T07:08:36.093Z,18.70
2018-11-10T07:11:04.592Z,19.23
2018-11-10T07:13:33.076Z,17.07
2018-11-10T07:16:01.541Z,17.03
2018-11-10T07:18:30.019Z,18.10
2018-11-10T07:20:58.531Z,18.13
2018-11-10T07:23:27.049Z,18.57
2018-11-10T07:25:55.514Z,18.93
2018-11-10T07:28:24.018Z,18.90
2018-11-10T07:30:52.556Z,18.70
2018-11-10T07:33:21.041Z,18.97
2018-11-10T07:35:49.700Z,18.17
2018-11-10T07:38:18.159Z,17.67
2018-11-10T07:40:46.626Z,17.97
2018-11-10T07:43:15.183Z,17.67
2018-11-10T07:45:43.667Z,18.70
2018-11-10T07:48:12.123Z,17.33
2018-11-10T07:50:40.751Z,18.27
2018-11-10T07:53:09.322Z,19.43
2018-11-10T07:55:37.901Z,18.40
2018-11-10T07:58:06.440Z,16.70
2018-11-10T08:00:34.964Z,17.77
2018-11-10T08:03:03.481Z,16.00
2018-11-10T08:05:32.075Z,19.77
2018-11-10T08:08:00.874Z,16.83
2018-11-10T08:10:29.387Z,17.63
2018-11-10T08:12:57.839Z,16.97
2018-11-10T08:15:26.315Z,16.47
2018-11-10T08:17:54.777Z,16.57
2018-11-10T08:20:23.287Z,18.33
2018-11-10T08:22:51.788Z,17.80
2018-11-10T08:25:20.268Z,16.60
2018-11-10T08:27:48.782Z,16.87
2018-11-10T08:30:17.247Z,16.70
2018-11-10T08:32:45.777Z,16.37
2018-11-10T08:35:14.926Z,16.33
2018-11-10T08:37:43.460Z,15.27
2018-11-10T08:40:13.502Z,15.20
2018-11-10T08:42:41.962Z,15.67
2018-11-10T08:45:11.752Z,16.00
2018-11-10T08:47:40.683Z,15.50
2018-11-10T08:50:10.098Z,16.63
2018-11-10T08:52:38.828Z,15.97
2018-11-10T08:55:07.588Z,15.30
2018-11-10T08:57:36.107Z,15.97
2018-11-10T09:00:07.025Z,17.03
2018-11-10T09:02:35.927Z,16.03
2018-11-10T09:05:04.767Z,15.00
2018-11-10T09:07:33.215Z,14.97
2018-11-10T09:10:01.829Z,15.10
2018-11-10T09:12:30.215Z,14.50
2018-11-10T09:14:58.788Z,16.13
2018-11-10T09:17:27.259Z,14.33
2018-11-10T09:19:55.742Z,14.30
2018-11-10T09:22:24.179Z,14.47
2018-11-10T09:24:53.889Z,13.73
2018-11-10T09:27:22.384Z,13.43
2018-11-10T09:29:50.869Z,13.10
2018-11-10T09:32:19.321Z,13.97
2018-11-10T09:34:47.800Z,13.80
2018-11-10T09:37:16.269Z,14.03
2018-11-10T09:39:44.975Z,15.17
2018-11-10T09:42:13.577Z,12.77
2018-11-10T09:44:41.923Z,13.40
2018-11-10T09:47:10.491Z,14.07
2018-11-10T09:49:38.946Z,14.03
2018-11-10T09:52:07.428Z,13.33
2018-11-10T09:54:36.164Z,14.20
2018-11-10T09:57:05.017Z,14.30
2018-11-10T09:59:33.620Z,13.60
2018-11-10T10:02:02.657Z,13.90
2018-11-10T10:04:30.598Z,14.63
2018-11-10T10:06:59.075Z,14.20
2018-11-10T10:09:27.567Z,14.97
2018-11-10T10:11:56.063Z,14.33
2018-11-10T10:14:24.575Z,14.57
2018-11-10T10:16:53.064Z,14.70
2018-11-10T10:19:21.601Z,14.33
2018-11-10T10:21:50.292Z,13.10
2018-11-10T10:24:18.715Z,14.33
2018-11-10T10:26:47.435Z,14.73
2018-11-10T10:29:15.911Z,14.43
2018-11-10T10:31:44.376Z,14.67
2018-11-10T10:34:12.907Z,15.00
2018-11-10T10:36:41.326Z,14.80
2018-11-10T10:39:10.248Z,14.60
2018-11-10T10:41:39.356Z,15.47
2018-11-10T10:44:08.823Z,15.37
2018-11-10T10:46:37.291Z,15.13
2018-11-10T10:49:05.954Z,15.67
2018-11-10T10:51:34.697Z,16.43
2018-11-10T10:54:03.172Z,14.77
2018-11-10T10:56:31.771Z,15.77
2018-11-10T10:59:00.164Z,16.03
2018-11-10T11:01:34.233Z,17.25
2018-11-10T11:04:09.037Z,16.93
2018-11-10T11:06:37.543Z,15.50
2018-11-10T11:09:36.897Z,21.33
2018-11-10T11:12:05.478Z,29.13
2018-11-10T11:14:33.983Z,21.37
2018-11-10T11:17:02.570Z,19.63
2018-11-10T11:19:30.999Z,24.70
2018-11-10T11:21:59.557Z,33.57
2018-11-10T11:24:28.028Z,26.93
2018-11-10T11:26:56.496Z,18.20
2018-11-10T11:29:25.052Z,19.33
2018-11-10T11:31:53.419Z,17.13
2018-11-10T11:34:21.890Z,16.27
2018-11-10T11:36:51.185Z,19.50
2018-11-10T11:39:19.603Z,16.37
2018-11-10T11:41:48.097Z,14.87
2018-11-10T11:44:16.598Z,14.87
2018-11-10T11:46:45.095Z,15.30
2018-11-10T11:49:13.623Z,13.80
2018-11-10T11:51:42.164Z,14.50
2018-11-10T11:54:10.616Z,14.33
2018-11-10T11:56:39.091Z,92.37
2018-11-10T11:59:07.569Z,40.57
2018-11-10T12:01:36.018Z,29.53
2018-11-10T12:04:04.607Z,24.73
2018-11-10T12:06:33.045Z,15.63
2018-11-10T12:09:01.510Z,15.57
2018-11-10T12:11:29.985Z,13.13
2018-11-10T12:13:58.459Z,13.53
2018-11-10T12:16:27.584Z,15.20
2018-11-10T12:18:55.473Z,12.87
2018-11-10T12:21:23.937Z,12.27
2018-11-10T12:23:52.458Z,13.27
2018-11-10T12:26:21.015Z,12.33
2018-11-10T12:28:49.604Z,11.90
2018-11-10T12:31:18.067Z,19.37
2018-11-10T12:33:46.662Z,34.10
2018-11-10T12:36:15.118Z,34.57
2018-11-10T12:38:43.642Z,21.60
2018-11-10T12:41:12.028Z,17.13
2018-11-10T12:43:40.519Z,13.50
2018-11-10T12:46:09.190Z,12.97
2018-11-10T12:48:37.722Z,13.63
2018-11-10T12:51:06.198Z,13.10
2018-11-10T12:53:34.869Z,12.07
2018-11-10T12:56:03.364Z,12.27
2018-11-10T12:58:31.886Z,11.97
2018-11-10T13:01:00.327Z,12.67
2018-11-10T13:03:29.930Z,12.23
2018-11-10T13:06:00.374Z,12.27
2018-11-10T13:08:28.817Z,13.13
2018-11-10T13:10:57.333Z,12.37
2018-11-10T13:13:25.815Z,11.60
2018-11-10T13:15:54.256Z,12.17
2018-11-10T13:18:22.771Z,12.87
2018-11-10T13:20:51.283Z,12.17
2018-11-10T13:23:19.724Z,12.87
2018-11-10T13:25:48.191Z,11.73
2018-11-10T13:28:16.676Z,11.83
2018-11-10T13:30:45.224Z,12.37
2018-11-10T13:33:14.299Z,13.23
2018-11-10T13:35:43.601Z,10.90
2018-11-10T13:38:12.219Z,11.50
2018-11-10T13:40:40.586Z,11.50
2018-11-10T13:43:09.097Z,10.30
2018-11-10T13:45:37.572Z,11.17
2018-11-10T13:48:06.057Z,10.57
2018-11-10T13:50:34.892Z,10.77
2018-11-10T13:53:04.115Z,10.17
2018-11-10T13:55:32.711Z,10.23
2018-11-10T13:58:01.560Z,24.07
2018-11-10T14:00:30.410Z,14.37
2018-11-10T14:02:59.356Z,19.57
2018-11-10T14:05:28.347Z,13.40
2018-11-10T14:07:57.185Z,14.17
2018-11-10T14:10:26.036Z,11.27
2018-11-10T14:12:55.027Z,10.30
2018-11-10T14:15:23.852Z,13.60
2018-11-10T14:17:52.761Z,9.70
2018-11-10T14:20:21.664Z,9.83
2018-11-10T14:22:50.510Z,10.47
2018-11-10T14:25:19.361Z,10.13
2018-11-10T14:27:48.252Z,10.37
2018-11-10T14:30:18.048Z,11.00
2018-11-10T14:32:47.535Z,9.50
2018-11-10T14:35:16.510Z,11.30
2018-11-10T14:37:45.351Z,10.93
2018-11-10T14:40:15.634Z,11.13
2018-11-10T14:42:44.750Z,10.60
2018-11-10T14:45:14.934Z,13.47
2018-11-10T14:47:44.389Z,11.70
2018-11-10T14:50:15.323Z,11.50
2018-11-10T14:52:44.631Z,11.07
2018-11-10T14:55:13.989Z,11.30
2018-11-10T14:57:43.123Z,94.60
2018-11-10T15:00:14.317Z,59.17
2018-11-10T15:02:43.261Z,57.00
2018-11-10T15:05:12.728Z,110.53
2018-11-10T15:07:42.798Z,13.27
2018-11-10T15:10:13.068Z,13.37
2018-11-10T15:12:43.127Z,12.60
2018-11-10T15:15:12.888Z,12.07
2018-11-10T15:17:41.912Z,11.33
2018-11-10T15:20:12.114Z,11.97
2018-11-10T15:22:41.346Z,12.10
2018-11-10T15:25:12.506Z,11.60
2018-11-10T15:27:41.644Z,10.83
2018-11-10T15:30:17.828Z,11.20
2018-11-10T15:32:47.328Z,9.97
2018-11-10T15:35:17.453Z,9.67
2018-11-10T15:37:47.592Z,11.10
2018-11-10T15:40:47.114Z,9.73
2018-11-10T15:43:15.974Z,12.33
2018-11-10T15:45:45.776Z,9.00
2018-11-10T15:48:14.726Z,8.03
2018-11-10T15:50:43.562Z,7.67
2018-11-10T15:53:12.507Z,7.93
2018-11-10T15:55:41.352Z,7.50
2018-11-10T15:58:10.255Z,8.20
2018-11-10T16:00:39.281Z,8.37
2018-11-10T16:03:08.167Z,7.67
2018-11-10T16:05:36.992Z,7.60
2018-11-10T16:08:06.030Z,8.70
2018-11-10T16:10:34.961Z,8.60
2018-11-10T16:13:03.902Z,7.40
2018-11-10T16:15:32.735Z,7.30
2018-11-10T16:18:01.673Z,9.10
2018-11-10T16:20:30.513Z,6.93
2018-11-10T16:22:59.348Z,8.27
2018-11-10T16:25:28.205Z,8.20
2018-11-10T16:27:57.077Z,7.17
2018-11-10T16:30:25.945Z,7.87
2018-11-10T16:32:54.829Z,8.33
2018-11-10T16:35:23.672Z,8.40
2018-11-10T16:37:52.519Z,26.90
2018-11-10T16:40:21.392Z,16.83
2018-11-10T16:42:50.556Z,13.70
2018-11-10T16:45:20.310Z,8.90
2018-11-10T16:47:49.163Z,7.70
2018-11-10T16:50:18.012Z,9.47
2018-11-10T16:52:47.927Z,8.90
2018-11-10T16:55:17.056Z,7.10
2018-11-10T16:57:48.230Z,7.43
2018-11-10T17:00:18.332Z,6.83
2018-11-10T17:02:48.923Z,7.40
2018-11-10T17:05:17.835Z,7.43
2018-11-10T17:10:47.500Z,7.90
2018-11-10T17:13:16.421Z,6.57
2018-11-10T17:15:45.330Z,5.80
2018-11-10T17:18:15.695Z,6.90
2018-11-10T17:20:44.638Z,7.33
2018-11-10T17:23:13.441Z,6.27
2018-11-10T17:25:42.308Z,5.53
2018-11-10T17:28:11.184Z,6.50
2018-11-10T17:30:40.290Z,6.13
2018-11-10T17:33:09.259Z,8.67
2018-11-10T17:35:38.068Z,7.80
2018-11-10T17:38:08.038Z,8.57
2018-11-10T17:40:36.868Z,7.90
2018-11-10T17:43:06.202Z,7.23
2018-11-10T17:45:35.057Z,8.03
2018-11-10T17:48:03.957Z,7.07
2018-11-10T17:50:32.858Z,7.07
2018-11-10T17:53:01.717Z,7.53
2018-11-10T17:55:30.830Z,6.53
2018-11-10T17:57:59.796Z,6.40
2018-11-10T18:00:28.677Z,6.70
2018-11-10T18:02:57.548Z,6.20
2018-11-10T18:05:26.413Z,6.37
2018-11-10T18:07:55.259Z,7.23
2018-11-10T18:10:24.155Z,6.20
2018-11-10T18:12:53.054Z,8.17
2018-11-10T18:15:21.890Z,5.73
2018-11-10T18:17:50.760Z,4.70
2018-11-10T18:20:19.608Z,5.47
2018-11-10T18:22:48.480Z,5.50
2018-11-10T18:25:17.340Z,8.33
2018-11-10T18:27:46.256Z,7.17
2018-11-10T18:30:15.756Z,6.10
2018-11-10T18:32:45.078Z,7.03
2018-11-10T18:35:14.335Z,7.53
2018-11-10T18:37:43.366Z,6.80
2018-11-10T18:40:12.189Z,7.37
2018-11-10T18:42:41.058Z,9.33
2018-11-10T18:45:10.857Z,12.87
2018-11-10T18:47:40.326Z,7.10
2018-11-10T18:50:11.396Z,7.67
2018-11-10T18:52:40.234Z,7.37
2018-11-10T18:55:09.114Z,9.10
2018-11-10T18:57:38.247Z,9.27
2018-11-10T19:00:09.155Z,8.37
2018-11-10T19:02:38.319Z,9.30
2018-11-10T19:05:08.128Z,8.63
2018-11-10T19:07:37.301Z,9.57
2018-11-10T19:10:07.967Z,7.20
2018-11-10T19:12:37.033Z,8.53
2018-11-10T19:15:08.076Z,8.87
2018-11-10T19:17:36.916Z,7.00
2018-11-10T19:20:06.477Z,7.03
2018-11-10T19:22:35.504Z,8.30
2018-11-10T19:25:04.725Z,6.30
2018-11-10T19:27:33.678Z,5.97
2018-11-10T19:30:02.590Z,6.73
2018-11-10T19:32:31.445Z,6.10
2018-11-10T19:35:00.282Z,6.77
2018-11-10T19:37:29.160Z,5.57
2018-11-10T19:39:58.008Z,5.83
2018-11-10T19:42:26.946Z,6.07
2018-11-10T19:44:56.308Z,6.07
2018-11-10T19:47:25.619Z,6.40
2018-11-10T19:49:54.472Z,6.10
2018-11-10T19:52:23.355Z,5.83
2018-11-10T19:54:52.213Z,7.27
2018-11-10T19:57:21.216Z,8.70
2018-11-10T19:59:50.092Z,7.83
2018-11-10T20:02:18.984Z,7.27
2018-11-10T20:04:47.903Z,8.47
2018-11-10T20:07:16.744Z,8.63
2018-11-10T20:09:45.597Z,8.33
2018-11-10T20:12:14.420Z,8.60
2018-11-10T20:14:43.381Z,7.43
2018-11-10T20:17:12.352Z,7.20
2018-11-10T20:19:41.317Z,5.73
2018-11-10T20:22:10.056Z,6.17
2018-11-10T20:24:38.871Z,7.03
2018-11-10T20:27:07.828Z,6.27
2018-11-10T20:29:36.706Z,7.10
2018-11-10T20:32:05.683Z,7.50
2018-11-10T20:34:34.547Z,7.97
2018-11-10T20:37:03.438Z,7.47
2018-11-10T20:39:32.265Z,7.57
2018-11-10T20:42:01.217Z,7.70
2018-11-10T20:44:30.218Z,8.53
2018-11-10T20:46:59.051Z,9.13
2018-11-10T20:49:28.026Z,8.40
2018-11-10T20:51:56.869Z,8.60
2018-11-10T20:54:25.780Z,8.33
2018-11-10T20:56:54.672Z,9.53
2018-11-10T20:59:23.556Z,8.07
2018-11-10T21:01:52.456Z,7.90
2018-11-10T21:04:21.353Z,8.33
2018-11-10T21:06:50.229Z,6.97
2018-11-10T21:09:19.261Z,7.63
2018-11-10T21:11:48.150Z,7.53
2018-11-10T21:14:16.964Z,6.70
2018-11-10T21:16:45.911Z,8.20
2018-11-10T21:19:14.800Z,7.70
2018-11-10T21:21:43.645Z,6.77
2018-11-10T21:24:12.527Z,6.67
2018-11-10T21:26:41.771Z,7.27
2018-11-10T21:29:10.773Z,6.90
2018-11-10T21:31:39.740Z,7.10
2018-11-10T21:34:08.642Z,7.17
2018-11-10T21:36:37.978Z,7.03
2018-11-10T21:39:08.906Z,6.43
2018-11-10T21:41:37.884Z,7.20
2018-11-10T21:44:06.828Z,6.10
2018-11-10T21:46:35.707Z,6.30
2018-11-10T21:49:05.388Z,5.73
2018-11-10T21:51:34.345Z,6.10
2018-11-10T21:54:03.292Z,5.10
2018-11-10T21:56:33.244Z,5.30
2018-11-10T21:59:02.152Z,6.27
2018-11-10T22:01:31.744Z,5.50
2018-11-10T22:04:00.602Z,5.80
2018-11-10T22:06:31.048Z,6.73
2018-11-10T22:09:00.650Z,6.30
2018-11-10T22:11:29.642Z,6.70
2018-11-10T22:13:58.448Z,7.50
2018-11-10T22:16:27.451Z,6.63
2018-11-10T22:18:56.388Z,7.93
2018-11-10T22:21:25.459Z,7.27
2018-11-10T22:23:54.427Z,7.93
2018-11-10T22:26:23.666Z,8.50
2018-11-10T22:28:52.927Z,7.47
2018-11-10T22:31:25.261Z,8.17
2018-11-10T22:33:56.096Z,8.53
2018-11-10T22:36:25.005Z,8.30
2018-11-10T22:39:09.588Z,9.67
2018-11-10T22:41:38.943Z,8.77
2018-11-10T22:44:08.938Z,8.83
2018-11-10T22:46:38.224Z,10.13
2018-11-10T22:49:08.136Z,8.60
2018-11-10T22:51:37.228Z,8.80
2018-11-10T22:54:08.269Z,10.53
2018-11-10T22:56:37.511Z,8.90
2018-11-10T22:59:09.409Z,10.10
2018-11-10T23:01:38.543Z,10.60
2018-11-10T23:04:07.444Z,8.77
2018-11-10T23:06:36.375Z,9.43
2018-11-10T23:09:07.563Z,10.33
2018-11-10T23:11:36.770Z,10.47
2018-11-10T23:14:05.923Z,13.53
2018-11-10T23:16:35.027Z,12.70
2018-11-10T23:19:10.705Z,12.33
2018-11-10T23:21:39.599Z,12.47
2018-11-10T23:24:08.476Z,11.17
2018-11-10T23:26:37.429Z,12.30
2018-11-10T23:29:06.517Z,10.70
2018-11-10T23:31:35.580Z,14.03
2018-11-10T23:34:04.892Z,12.20
2018-11-10T23:36:33.868Z,12.27
2018-11-10T23:39:02.759Z,10.30
2018-11-10T23:41:31.629Z,12.50
2018-11-10T23:44:00.515Z,11.33
2018-11-10T23:46:29.348Z,13.00
2018-11-10T23:48:58.846Z,11.40
2018-11-10T23:51:28.955Z,9.90
2018-11-10T23:53:57.925Z,9.03
2018-11-10T23:56:26.883Z,16.03
2018-11-10T23:58:55.972Z,10.90
